createdAt,value
2019-05-22T00:01:11.105Z,10.90
2019-05-22T00:03:48.282Z,11.00
2019-05-22T00:06:22.884Z,11.00
2019-05-22T00:08:52.897Z,11.00
2019-05-22T00:11:25.079Z,10.90
2019-05-22T00:13:55.416Z,10.90
2019-05-22T00:16:25.192Z,10.90
2019-05-22T00:18:56.148Z,10.90
2019-05-22T00:21:25.837Z,10.90
2019-05-22T00:23:56.876Z,10.90
2019-05-22T00:26:28.572Z,10.90
2019-05-22T00:28:59.361Z,11.00
2019-05-22T00:31:30.179Z,10.90
2019-05-22T00:34:00.179Z,10.90
2019-05-22T00:36:31.551Z,10.90
2019-05-22T00:39:01.658Z,10.80
2019-05-22T00:41:35.001Z,10.90
2019-05-22T00:44:06.318Z,10.90
2019-05-22T00:46:36.628Z,10.80
2019-05-22T00:49:08.474Z,10.90
2019-05-22T00:52:04.157Z,10.90
2019-05-22T00:54:47.478Z,10.90
2019-05-22T00:57:36.587Z,10.80
2019-05-22T01:00:28.312Z,10.80
2019-05-22T01:02:59.532Z,10.80
2019-05-22T01:05:35.598Z,10.90
2019-05-22T01:08:06.924Z,10.90
2019-05-22T01:10:38.505Z,11.00
2019-05-22T01:13:09.470Z,10.90
2019-05-22T01:15:40.768Z,11.00
2019-05-22T01:18:31.105Z,11.00
2019-05-22T01:21:03.571Z,10.90
2019-05-22T01:23:34.825Z,10.90
2019-05-22T01:26:06.185Z,11.00
2019-05-22T01:28:37.355Z,10.90
2019-05-22T01:31:27.110Z,10.90
2019-05-22T01:34:05.562Z,10.90
2019-05-22T01:36:54.243Z,10.90
2019-05-22T01:39:56.373Z,10.90
2019-05-22T01:42:34.901Z,10.90
2019-05-22T01:45:07.066Z,10.90
2019-05-22T01:47:43.920Z,10.90
2019-05-22T01:50:18.352Z,10.90
2019-05-22T01:52:53.112Z,10.80
2019-05-22T01:55:23.727Z,10.90
2019-05-22T01:57:53.987Z,10.90
2019-05-22T02:00:24.382Z,10.90
2019-05-22T02:02:54.370Z,10.80
2019-05-22T02:05:25.340Z,10.80
2019-05-22T02:07:56.601Z,10.80
2019-05-22T02:10:30.348Z,10.80
2019-05-22T02:13:03.753Z,10.80
2019-05-22T02:15:35.029Z,10.90
2019-05-22T02:18:10.743Z,10.90
2019-05-22T02:20:45.000Z,10.90
2019-05-22T02:23:17.022Z,10.80
2019-05-22T02:25:47.237Z,10.80
2019-05-22T02:28:19.084Z,10.80
2019-05-22T02:30:52.842Z,10.80
2019-05-22T02:33:25.243Z,10.80
2019-05-22T02:35:55.405Z,10.80
2019-05-22T02:38:29.308Z,10.80
2019-05-22T02:40:59.730Z,10.80
2019-05-22T02:43:31.335Z,10.80
2019-05-22T02:46:02.022Z,10.80
2019-05-22T02:48:32.941Z,10.80
2019-05-22T02:51:02.611Z,10.80
2019-05-22T02:53:35.477Z,10.80
2019-05-22T02:56:08.892Z,10.80
2019-05-22T02:58:40.775Z,10.80
2019-05-22T03:01:13.973Z,10.80
2019-05-22T03:03:44.639Z,10.80
2019-05-22T03:06:14.179Z,10.80
2019-05-22T03:09:32.854Z,10.80
2019-05-22T03:12:11.226Z,10.80
2019-05-22T03:14:41.905Z,10.70
2019-05-22T03:17:31.156Z,10.70
2019-05-22T03:20:16.974Z,10.70
2019-05-22T03:22:58.946Z,10.80
2019-05-22T03:25:34.555Z,10.70
2019-05-22T03:28:07.292Z,10.80
2019-05-22T03:30:46.346Z,10.80
2019-05-22T03:33:17.877Z,10.80
2019-05-22T03:35:51.216Z,10.70
2019-05-22T03:38:23.447Z,10.70
2019-05-22T03:40:54.930Z,10.80
2019-05-22T03:43:28.321Z,10.80
2019-05-22T03:46:00.701Z,10.80
2019-05-22T03:48:35.415Z,10.80
2019-05-22T03:51:11.365Z,10.80
2019-05-22T03:53:42.857Z,10.80
2019-05-22T03:56:15.210Z,10.80
2019-05-22T03:58:47.619Z,10.80
2019-05-22T04:01:19.440Z,10.80
2019-05-22T04:03:51.692Z,10.70
2019-05-22T04:06:22.178Z,10.80
2019-05-22T04:08:55.045Z,10.80
2019-05-22T04:11:26.882Z,10.70
2019-05-22T04:13:57.595Z,10.80
2019-05-22T04:16:30.056Z,10.80
2019-05-22T04:19:00.711Z,10.80
2019-05-22T04:21:36.079Z,10.80
2019-05-22T04:24:06.188Z,10.80
2019-05-22T04:26:35.802Z,10.70
2019-05-22T04:29:06.314Z,10.80
2019-05-22T04:32:13.518Z,10.80
2019-05-22T04:34:43.298Z,10.80
2019-05-22T04:37:15.869Z,10.80
2019-05-22T04:39:48.852Z,10.80
2019-05-22T04:42:20.971Z,10.80
2019-05-22T04:45:12.264Z,10.80
2019-05-22T04:47:55.155Z,10.90
2019-05-22T04:50:27.562Z,10.90
2019-05-22T04:52:59.224Z,10.90
2019-05-22T04:55:30.173Z,10.90
2019-05-22T04:58:02.939Z,10.90
2019-05-22T05:00:35.851Z,10.90
2019-05-22T05:03:06.720Z,10.90
2019-05-22T05:05:39.579Z,10.90
2019-05-22T05:08:09.814Z,10.90
2019-05-22T05:10:41.316Z,10.90
2019-05-22T05:13:11.270Z,10.90
2019-05-22T05:15:41.457Z,10.90
2019-05-22T05:18:11.326Z,10.90
2019-05-22T05:20:40.818Z,10.90
2019-05-22T05:23:12.055Z,10.90
2019-05-22T05:25:43.784Z,10.90
2019-05-22T05:28:15.414Z,10.90
2019-05-22T05:30:45.734Z,10.90
2019-05-22T05:33:17.113Z,11.00
2019-05-22T05:35:54.045Z,10.90
2019-05-22T05:38:34.285Z,10.90
2019-05-22T05:41:03.884Z,10.90
2019-05-22T05:43:34.193Z,10.80
2019-05-22T05:46:06.608Z,10.90
2019-05-22T05:48:37.121Z,10.90
2019-05-22T05:51:39.246Z,10.90
2019-05-22T05:54:20.429Z,10.90
2019-05-22T05:56:52.580Z,11.00
2019-05-22T05:59:24.350Z,11.00
2019-05-22T06:01:55.618Z,11.10
2019-05-22T06:04:35.179Z,11.20
2019-05-22T06:07:24.820Z,11.20
2019-05-22T06:10:23.829Z,11.20
2019-05-22T06:12:53.555Z,11.20
2019-05-22T06:15:44.225Z,11.20
2019-05-22T06:18:40.410Z,11.20
2019-05-22T06:21:10.865Z,11.30
2019-05-22T06:24:28.567Z,11.30
2019-05-22T06:27:21.886Z,11.30
2019-05-22T06:29:57.856Z,11.30
2019-05-22T06:33:03.888Z,11.20
2019-05-22T06:35:41.692Z,11.30
2019-05-22T06:38:40.312Z,11.30
2019-05-22T06:41:10.381Z,11.30
2019-05-22T06:44:17.121Z,11.30
2019-05-22T06:46:48.859Z,11.30
2019-05-22T06:49:47.697Z,11.40
2019-05-22T06:52:19.475Z,11.50
2019-05-22T06:54:55.048Z,11.60
2019-05-22T06:57:29.673Z,11.70
2019-05-22T07:00:13.445Z,11.70
2019-05-22T07:02:44.231Z,11.80
2019-05-22T07:05:09.986Z,11.70
2019-05-22T07:07:40.737Z,11.80
2019-05-22T07:10:14.581Z,11.80
2019-05-22T07:12:50.520Z,11.80
2019-05-22T07:15:28.527Z,11.70
2019-05-22T07:17:59.573Z,11.80
2019-05-22T07:20:35.744Z,11.80
2019-05-22T07:23:08.712Z,11.80
2019-05-22T07:25:41.867Z,11.80
2019-05-22T07:28:15.915Z,11.80
2019-05-22T07:30:47.450Z,11.80
2019-05-22T07:33:18.955Z,11.90
2019-05-22T07:36:07.893Z,12.00
2019-05-22T07:38:27.040Z,12.10
2019-05-22T07:40:59.013Z,12.20
2019-05-22T07:43:28.914Z,12.40
2019-05-22T07:46:01.558Z,12.50
2019-05-22T07:48:31.864Z,12.60
2019-05-22T07:51:04.938Z,12.60
2019-05-22T07:53:35.632Z,12.70
2019-05-22T07:56:12.994Z,12.70
2019-05-22T07:58:49.986Z,12.50
2019-05-22T08:01:27.323Z,12.40
2019-05-22T08:04:01.382Z,12.30
2019-05-22T08:06:31.691Z,12.20
2019-05-22T08:09:04.313Z,12.30
2019-05-22T08:11:33.701Z,12.30
2019-05-22T08:14:03.921Z,12.30
2019-05-22T08:16:35.032Z,12.40
2019-05-22T08:19:05.243Z,12.40
2019-05-22T08:21:34.933Z,12.50
2019-05-22T08:24:05.971Z,12.50
2019-05-22T08:26:53.251Z,12.60
2019-05-22T08:29:07.925Z,12.60
2019-05-22T08:31:40.293Z,12.70
2019-05-22T08:34:13.419Z,12.80
2019-05-22T08:36:49.604Z,12.70
2019-05-22T08:39:19.324Z,12.80
2019-05-22T08:41:51.010Z,12.80
2019-05-22T08:44:21.022Z,12.90
2019-05-22T08:46:51.901Z,12.90
2019-05-22T08:49:21.834Z,12.90
2019-05-22T08:51:52.683Z,13.00
2019-05-22T08:54:25.130Z,13.10
2019-05-22T08:56:56.226Z,13.10
2019-05-22T08:59:26.164Z,13.10
2019-05-22T09:01:56.925Z,13.20
2019-05-22T09:04:29.402Z,13.30
2019-05-22T09:06:58.805Z,13.50
2019-05-22T09:09:33.447Z,13.50
2019-05-22T09:12:11.076Z,13.50
2019-05-22T09:14:44.506Z,13.50
2019-05-22T09:17:15.272Z,13.40
2019-05-22T09:19:44.782Z,13.40
2019-05-22T09:22:15.685Z,13.40
2019-05-22T09:24:47.914Z,13.50
2019-05-22T09:27:18.956Z,13.60
2019-05-22T09:29:48.488Z,13.60
2019-05-22T09:32:23.888Z,13.70
2019-05-22T09:34:54.823Z,13.70
2019-05-22T09:37:24.669Z,13.70
2019-05-22T09:39:55.291Z,13.70
2019-05-22T09:42:24.960Z,13.80
2019-05-22T09:44:56.378Z,13.80
2019-05-22T09:47:26.917Z,13.90
2019-05-22T09:49:56.938Z,13.80
2019-05-22T09:52:27.218Z,13.70
2019-05-22T09:54:57.834Z,13.70
2019-05-22T09:57:28.282Z,13.60
2019-05-22T09:59:57.957Z,13.50
2019-05-22T10:02:30.442Z,13.70
2019-05-22T10:04:59.893Z,13.70
2019-05-22T10:07:29.682Z,13.80
2019-05-22T10:09:59.114Z,13.80
2019-05-22T10:12:29.195Z,14.00
2019-05-22T10:14:58.918Z,14.10
2019-05-22T10:17:29.923Z,14.30
2019-05-22T10:20:00.088Z,14.30
2019-05-22T10:22:38.666Z,14.30
2019-05-22T10:25:16.317Z,14.30
2019-05-22T10:27:44.362Z,14.40
2019-05-22T10:30:17.578Z,14.50
2019-05-22T10:32:51.191Z,14.50
2019-05-22T10:35:27.640Z,14.70
2019-05-22T10:37:57.850Z,14.90
2019-05-22T10:40:29.977Z,15.00
2019-05-22T10:42:59.298Z,15.00
2019-05-22T10:45:30.340Z,15.10
2019-05-22T10:48:01.331Z,15.10
2019-05-22T10:50:35.005Z,15.30
2019-05-22T10:53:04.871Z,15.40
2019-05-22T10:55:37.490Z,15.30
2019-05-22T10:58:07.018Z,15.20
2019-05-22T11:00:36.510Z,15.10
2019-05-22T11:03:07.238Z,15.10
2019-05-22T11:05:37.995Z,15.30
2019-05-22T11:08:08.680Z,15.80
2019-05-22T11:10:39.915Z,16.00
2019-05-22T11:13:10.219Z,16.30
2019-05-22T11:15:40.861Z,16.70
2019-05-22T11:18:31.297Z,16.90
2019-05-22T11:21:08.168Z,17.00
2019-05-22T11:23:51.032Z,16.70
2019-05-22T11:26:10.916Z,16.60
2019-05-22T11:28:41.004Z,16.60
2019-05-22T11:31:11.983Z,16.70
2019-05-22T11:33:42.473Z,16.70
2019-05-22T11:36:13.227Z,16.60
2019-05-22T11:38:44.726Z,16.60
2019-05-22T11:41:16.348Z,16.60
2019-05-22T11:43:46.365Z,16.40
2019-05-22T11:46:18.085Z,16.50
2019-05-22T11:48:48.626Z,16.70
2019-05-22T11:51:21.012Z,16.80
2019-05-22T11:54:07.479Z,17.00
2019-05-22T11:56:25.851Z,17.00
2019-05-22T11:58:56.561Z,17.20
2019-05-22T12:01:26.033Z,17.30
2019-05-22T12:03:55.835Z,17.40
2019-05-22T12:06:31.210Z,17.40
2019-05-22T12:09:01.086Z,17.40
2019-05-22T12:11:32.144Z,17.20
2019-05-22T12:14:01.656Z,17.10
2019-05-22T12:16:33.906Z,17.10
2019-05-22T12:19:03.416Z,17.10
2019-05-22T12:21:33.168Z,17.00
2019-05-22T12:24:02.568Z,16.80
2019-05-22T12:26:32.369Z,17.10
2019-05-22T12:29:02.260Z,17.20
2019-05-22T12:31:33.035Z,17.20
2019-05-22T12:34:04.313Z,16.90
2019-05-22T12:36:35.185Z,16.90
2019-05-22T12:39:08.597Z,16.80
2019-05-22T12:41:39.557Z,16.80
2019-05-22T12:44:08.879Z,16.90
2019-05-22T12:46:39.584Z,16.80
2019-05-22T12:49:12.522Z,16.70
2019-05-22T12:51:42.150Z,16.80
2019-05-22T12:54:12.160Z,16.70
2019-05-22T12:56:42.091Z,16.80
2019-05-22T12:59:15.095Z,16.90
2019-05-22T13:01:45.903Z,16.90
2019-05-22T13:04:18.723Z,16.90
2019-05-22T13:06:48.404Z,17.10
2019-05-22T13:09:19.451Z,17.30
2019-05-22T13:11:49.969Z,17.10
2019-05-22T13:14:20.964Z,17.10
2019-05-22T13:16:50.952Z,17.20
2019-05-22T13:19:21.686Z,17.40
2019-05-22T13:21:53.940Z,17.60
2019-05-22T13:24:23.714Z,17.50
2019-05-22T13:26:55.258Z,17.70
2019-05-22T13:29:25.555Z,17.80
2019-05-22T13:31:56.618Z,17.90
2019-05-22T13:34:28.482Z,17.90
2019-05-22T13:36:59.387Z,18.10
2019-05-22T13:39:29.590Z,18.10
2019-05-22T13:41:59.584Z,18.10
2019-05-22T13:44:31.251Z,18.20
2019-05-22T13:47:02.127Z,18.10
2019-05-22T13:49:35.722Z,18.20
2019-05-22T13:52:07.553Z,18.30
2019-05-22T13:54:37.273Z,18.30
2019-05-22T13:57:07.442Z,18.30
2019-05-22T13:59:41.582Z,18.30
2019-05-22T14:02:11.793Z,18.20
2019-05-22T14:04:42.344Z,18.00
2019-05-22T14:07:12.213Z,17.80
2019-05-22T14:09:43.196Z,17.50
2019-05-22T14:12:13.829Z,17.30
2019-05-22T14:14:44.168Z,17.20
2019-05-22T14:17:14.013Z,17.10
2019-05-22T14:19:43.860Z,16.80
2019-05-22T14:22:14.418Z,16.90
2019-05-22T14:24:44.418Z,16.80
2019-05-22T14:27:17.820Z,16.80
2019-05-22T14:29:47.871Z,17.00
2019-05-22T14:32:19.204Z,16.90
2019-05-22T14:34:50.150Z,16.90
2019-05-22T14:37:22.510Z,16.90
2019-05-22T14:39:52.226Z,16.90
2019-05-22T14:42:29.926Z,17.20
2019-05-22T14:44:57.597Z,17.20
2019-05-22T14:47:27.662Z,17.50
2019-05-22T14:49:58.229Z,17.50
2019-05-22T14:52:32.979Z,17.50
2019-05-22T14:55:03.064Z,17.70
2019-05-22T14:57:32.791Z,17.90
2019-05-22T15:00:02.275Z,17.80
2019-05-22T15:02:31.902Z,17.70
2019-05-22T15:05:02.653Z,17.60
2019-05-22T15:07:34.003Z,17.50
2019-05-22T15:10:03.605Z,17.40
2019-05-22T15:12:34.125Z,17.30
2019-05-22T15:15:03.833Z,17.30
2019-05-22T15:17:33.460Z,17.20
2019-05-22T15:20:03.989Z,17.40
2019-05-22T15:22:37.622Z,17.50
2019-05-22T15:25:08.649Z,17.40
2019-05-22T15:27:39.185Z,17.30
2019-05-22T15:30:10.608Z,17.20
2019-05-22T15:32:40.580Z,17.20
2019-05-22T15:35:12.089Z,17.10
2019-05-22T15:37:43.870Z,16.90
2019-05-22T15:40:14.597Z,16.90
2019-05-22T15:42:45.861Z,16.90
2019-05-22T15:45:19.848Z,17.00
2019-05-22T15:47:55.422Z,17.00
2019-05-22T15:50:26.817Z,17.10
2019-05-22T15:53:01.349Z,17.00
2019-05-22T15:55:33.453Z,17.10
2019-05-22T15:58:05.413Z,17.30
2019-05-22T16:00:38.930Z,17.50
2019-05-22T16:03:11.902Z,17.60
2019-05-22T16:05:43.841Z,17.50
2019-05-22T16:08:16.467Z,17.50
2019-05-22T16:10:48.505Z,17.50
2019-05-22T16:13:22.913Z,17.30
2019-05-22T16:15:54.796Z,17.30
2019-05-22T16:18:31.674Z,17.30
2019-05-22T16:21:04.319Z,17.30
2019-05-22T16:23:37.262Z,17.10
2019-05-22T16:26:07.962Z,17.00
2019-05-22T16:28:40.855Z,16.90
2019-05-22T16:31:12.602Z,16.90
2019-05-22T16:33:46.553Z,16.80
2019-05-22T16:36:21.190Z,16.80
2019-05-22T16:38:52.494Z,16.80
2019-05-22T16:41:24.831Z,16.90
2019-05-22T16:43:55.520Z,16.90
2019-05-22T16:46:27.427Z,16.80
2019-05-22T16:48:58.267Z,16.80
2019-05-22T16:51:38.565Z,16.70
2019-05-22T16:54:09.797Z,16.80
2019-05-22T16:56:41.746Z,16.70
2019-05-22T16:59:13.438Z,16.80
2019-05-22T17:01:57.485Z,16.60
2019-05-22T17:04:17.232Z,16.40
2019-05-22T17:06:47.094Z,16.40
2019-05-22T17:09:19.171Z,16.50
2019-05-22T17:11:50.257Z,16.40
2019-05-22T17:14:22.008Z,16.40
2019-05-22T17:16:52.555Z,16.40
2019-05-22T17:19:27.579Z,16.50
2019-05-22T17:21:57.307Z,16.40
2019-05-22T17:24:34.015Z,16.30
2019-05-22T17:27:08.205Z,16.20
2019-05-22T17:29:38.398Z,16.10
2019-05-22T17:32:11.144Z,16.10
2019-05-22T17:34:45.267Z,16.00
2019-05-22T17:37:22.363Z,15.80
2019-05-22T17:39:52.479Z,15.70
2019-05-22T17:42:25.436Z,15.70
2019-05-22T17:44:57.210Z,15.60
2019-05-22T17:47:29.437Z,15.60
2019-05-22T17:50:01.987Z,15.50
2019-05-22T17:52:37.327Z,15.50
2019-05-22T17:55:12.083Z,15.50
2019-05-22T17:57:43.726Z,15.30
2019-05-22T18:00:23.636Z,15.30
2019-05-22T18:02:54.795Z,15.10
2019-05-22T18:05:25.822Z,15.10
2019-05-22T18:07:56.991Z,15.10
2019-05-22T18:10:26.649Z,15.00
2019-05-22T18:12:56.141Z,15.00
2019-05-22T18:15:26.883Z,15.10
2019-05-22T18:17:57.469Z,15.00
2019-05-22T18:20:41.803Z,15.00
2019-05-22T18:22:59.793Z,14.80
2019-05-22T18:25:31.379Z,14.80
2019-05-22T18:28:01.612Z,14.80
2019-05-22T18:30:32.590Z,14.70
2019-05-22T18:33:01.977Z,14.70
2019-05-22T18:35:35.504Z,14.70
2019-05-22T18:38:06.015Z,14.70
2019-05-22T18:40:35.613Z,14.60
2019-05-22T18:43:06.176Z,14.60
2019-05-22T18:45:37.331Z,14.60
2019-05-22T18:48:07.526Z,14.50
2019-05-22T18:50:40.513Z,14.40
2019-05-22T18:53:10.592Z,14.40
2019-05-22T18:55:41.096Z,14.40
2019-05-22T18:58:14.656Z,14.10
2019-05-22T19:00:48.483Z,14.10
2019-05-22T19:03:22.201Z,14.10
2019-05-22T19:05:51.769Z,14.10
2019-05-22T19:08:21.965Z,14.10
2019-05-22T19:10:51.401Z,14.10
2019-05-22T19:13:23.585Z,13.90
2019-05-22T19:15:54.516Z,13.90
2019-05-22T19:18:24.714Z,13.90
2019-05-22T19:20:55.298Z,14.00
2019-05-22T19:23:30.787Z,14.00
2019-05-22T19:26:00.214Z,14.10
2019-05-22T19:28:42.790Z,14.00
2019-05-22T19:31:08.534Z,13.90
2019-05-22T19:33:40.254Z,13.90
2019-05-22T19:36:12.659Z,13.80
2019-05-22T19:38:44.410Z,13.70
2019-05-22T19:41:18.973Z,13.70
2019-05-22T19:43:49.154Z,13.70
2019-05-22T19:46:19.562Z,13.80
2019-05-22T19:48:49.186Z,13.80
2019-05-22T19:51:20.163Z,13.90
2019-05-22T19:53:51.865Z,13.90
2019-05-22T19:56:23.933Z,13.90
2019-05-22T19:58:53.552Z,13.80
2019-05-22T20:01:23.318Z,13.80
2019-05-22T20:03:53.860Z,13.70
2019-05-22T20:06:24.331Z,13.80
2019-05-22T20:08:55.298Z,13.80
2019-05-22T20:11:26.312Z,13.70
2019-05-22T20:13:58.242Z,13.70
2019-05-22T20:16:33.145Z,13.70
2019-05-22T20:19:02.905Z,13.60
2019-05-22T20:21:32.375Z,13.60
2019-05-22T20:24:02.492Z,13.60
2019-05-22T20:26:31.988Z,13.50
2019-05-22T20:29:01.787Z,13.40
2019-05-22T20:31:31.900Z,13.30
2019-05-22T20:34:01.709Z,13.20
2019-05-22T20:36:40.725Z,13.20
2019-05-22T20:39:14.272Z,13.10
2019-05-22T20:41:44.613Z,13.00
2019-05-22T20:44:15.523Z,12.80
2019-05-22T20:46:46.719Z,12.80
2019-05-22T20:49:24.045Z,12.70
2019-05-22T20:51:54.943Z,12.60
2019-05-22T20:54:25.304Z,12.50
2019-05-22T20:56:59.436Z,12.40
2019-05-22T20:59:32.129Z,12.30
2019-05-22T21:02:07.286Z,12.30
2019-05-22T21:04:43.683Z,12.10
2019-05-22T21:07:13.752Z,12.10
2019-05-22T21:09:46.081Z,12.00
2019-05-22T21:12:20.315Z,12.00
2019-05-22T21:14:49.953Z,12.00
2019-05-22T21:17:20.108Z,11.90
2019-05-22T21:19:53.274Z,11.80
2019-05-22T21:22:25.587Z,11.70
2019-05-22T21:24:55.913Z,11.70
2019-05-22T21:27:30.039Z,11.60
2019-05-22T21:29:59.705Z,11.60
2019-05-22T21:32:29.222Z,11.50
2019-05-22T21:34:58.916Z,11.50
2019-05-22T21:37:33.579Z,11.40
2019-05-22T21:40:04.953Z,11.40
2019-05-22T21:42:44.815Z,11.30
2019-05-22T21:45:19.155Z,11.30
2019-05-22T21:47:51.199Z,11.30
2019-05-22T21:50:25.518Z,11.40
2019-05-22T21:52:54.892Z,11.30
2019-05-22T21:55:30.621Z,11.20
2019-05-22T21:58:02.970Z,11.30
2019-05-22T22:00:53.651Z,11.30
2019-05-22T22:03:27.245Z,11.20
2019-05-22T22:05:58.116Z,11.20
2019-05-22T22:08:27.857Z,11.00
2019-05-22T22:10:57.947Z,11.00
2019-05-22T22:13:30.092Z,11.00
2019-05-22T22:16:00.680Z,10.90
2019-05-22T22:18:31.330Z,10.90
2019-05-22T22:21:01.629Z,10.80
2019-05-22T22:23:33.656Z,10.80
2019-05-22T22:26:03.505Z,10.80
2019-05-22T22:28:32.885Z,10.70
2019-05-22T22:31:07.246Z,10.70
2019-05-22T22:33:36.983Z,10.60
2019-05-22T22:36:09.075Z,10.60
2019-05-22T22:38:39.719Z,10.70
2019-05-22T22:41:09.892Z,10.60
2019-05-22T22:43:40.888Z,10.50
2019-05-22T22:46:23.363Z,10.60
2019-05-22T22:48:56.920Z,10.50
2019-05-22T22:51:27.296Z,10.50
2019-05-22T22:53:59.510Z,10.40
2019-05-22T22:56:29.367Z,10.40
2019-05-22T22:58:59.356Z,10.40
2019-05-22T23:01:34.126Z,10.30
2019-05-22T23:04:05.780Z,10.40
2019-05-22T23:06:36.476Z,10.40
2019-05-22T23:09:08.342Z,10.40
2019-05-22T23:11:40.524Z,10.40
2019-05-22T23:14:10.715Z,10.40
2019-05-22T23:16:41.161Z,10.50
2019-05-22T23:19:32.041Z,10.50
2019-05-22T23:22:01.434Z,10.40
2019-05-22T23:24:30.952Z,10.40
2019-05-22T23:27:01.352Z,10.40
2019-05-22T23:29:32.827Z,10.30
2019-05-22T23:32:04.110Z,10.30
2019-05-22T23:34:33.868Z,10.40
2019-05-22T23:37:04.228Z,10.30
2019-05-22T23:39:33.725Z,10.30
2019-05-22T23:42:10.214Z,10.30
2019-05-22T23:44:41.321Z,10.30
2019-05-22T23:47:10.982Z,10.20
2019-05-22T23:49:41.372Z,10.20
2019-05-22T23:52:12.808Z,10.20
2019-05-22T23:54:45.888Z,10.10
2019-05-22T23:57:18.220Z,10.00
2019-05-22T23:59:53.172Z,10.00
